WALL/BPN METAR and TAF weather

Enter ICAO airport designator
Station Type Date Time Source
WALL METAR 2019/10/19 06:00 UTC NOAA

WALL 190600Z 22006KT 150V250 9999 FEW015CB SCT016 29/26Q1009 RMK CB TO N AND NW


Station Type Date Time Source
WALL Decoded METAR 2019/10/19 06:00 UTC NOAA

Station name not available
Oct 19, 2019 - 02:00 AM EDT / 2019.10.19 0600 UTC
Wind: from the SW (220 degrees) at 7 MPH (6 KT) (direction variable):0
Visibility: greater than 7 mile(s):0
Sky conditions: partly cloudy
Weather: Cumulonimbus clouds observed
Temperature: 84 F (29 C)
Dew Point: 78 F (26 C)
Relative Humidity: 83%
ob: WALL 190600Z 22006KT 150V250 9999 FEW015CB SCT016 29/26Q1009 RMK CB TO N AND NW
cycle: 6

Station Type Date Time Source
WALL TAF 2019/10/22 12:00 UTC NOAA

TAF WALL 221100Z 2212/2318 VRB02KT 9000 FEW020
TEMPO 2220/2223 FEW018CB

Example: see airport list